Fv/la Perouse — FUJT — position and weather

sailwx.info

Track history (hours):
 
Tides and Currents Weather Stations Pressure Air Temp Water Temp Dewpoint Dewpoint Depression Visibility Wind Speed Wind Dir Waves Ship Positions

Fv/la Perouse

Last reported at 2017-Oct-28 13:03 UTC. Time now 2017-Nov-21 14:03 UTC.
Position N 47°48' W 004°17'.
Warning: this ship's position is 24 days out of date.

Length 24 m; draft 4.1 m.

Type: Fishing. MMSI: 228174600.

Date/timePositionNaut miles runAvg speedWind from/ knotsBaromVisibWave heightAir tempDewpointWater temp
2017-Oct-28 13:03N 47°48' W 004°17'0 0.3
2017-Oct-28 12:52N 47°48' W 004°17'3 8.8
2017-Oct-28 12:29N 47°46' W 004°21'1511.1
2017-Oct-28 11:07N 47°47' W 004°44'311.1
2017-Oct-28 10:51N 47°47' W 004°48'611.1
2017-Oct-28 10:19N 47°48' W 004°57'1 2.4
2017-Oct-28 10:00N 47°47' W 004°57'2 3.5
2017-Oct-28 09:27N 47°47' W 005°00'6 9.8
2017-Oct-28 08:51N 47°47' W 005°09'611.0
2017-Oct-28 08:18N 47°47' W 005°18'411.1
2017-Oct-28 07:55N 47°47' W 005°24'611.2
2017-Oct-28 07:24N 47°47' W 005°33'511.1
2017-Oct-28 06:56N 47°47' W 005°41'610.9
2017-Oct-28 06:24N 47°47' W 005°50'510.9
2017-Oct-28 05:57N 47°47' W 005°57'511.0
2017-Oct-28 05:29N 47°47' W 006°04'  
2017-Oct-21 14:14N 43°53' W 008°01'7 8.1
2017-Oct-21 13:21N 43°53' W 007°51'3 7.9
2017-Oct-21 13:00N 43°52' W 007°47'4 8.2
2017-Oct-21 12:30N 43°52' W 007°41'4 8.4
2017-Oct-21 12:00N 43°52' W 007°36'4 8.1
2017-Oct-21 11:30N 43°51' W 007°30'4 8.5
2017-Oct-21 11:00N 43°51' W 007°24'4 8.5
2017-Oct-21 10:30N 43°50' W 007°18'4 8.3
2017-Oct-21 10:00N 43°49' W 007°13'263 6.6
2017-Oct-19 18:22N 47°50' W 004°42'3 9.3
2017-Oct-19 18:00N 47°54' W 004°44'510.6
2017-Oct-19 17:30N 47°59' W 004°46'611.3
2017-Oct-19 17:01N 48°04' W 004°44'5 9.8
2017-Oct-19 16:31N 48°06' W 004°37'5 9.2
2017-Oct-19 16:01N 48°06' W 004°30'5 9.4
2017-Oct-19 15:31N 48°07' W 004°23'3 5.1
2017-Oct-19 15:00N 48°06' W 004°20'0 0.1
2017-Oct-19 14:30N 48°06' W 004°20'0 0.0
2017-Oct-19 14:00N 48°06' W 004°20'0 0.0
2017-Oct-19 13:30N 48°06' W 004°20'0 0.1
2017-Oct-19 13:00N 48°06' W 004°20'0 0.0
2017-Oct-19 12:31N 48°06' W 004°20'0 0.0
2017-Oct-19 12:00N 48°06' W 004°20'0 0.0
2017-Oct-19 11:30N 48°06' W 004°20'0 0.3
2017-Oct-19 11:00N 48°06' W 004°19'0 0.0
2017-Oct-19 10:31N 48°06' W 004°19'0 0.0
2017-Oct-19 10:00N 48°06' W 004°19'0 0.0
2017-Oct-19 09:31N 48°06' W 004°19'0 0.0
2017-Oct-19 09:01N 48°06' W 004°19'  
Track history (hours):
 
Tides and Currents Weather Stations Pressure Air Temp Water Temp Dewpoint Dewpoint Depression Visibility Wind Speed Wind Dir Waves Ship Positions

Fv/la Perouse

Last reported at 2017-Oct-28 13:03 UTC. Time now 2017-Nov-21 14:03 UTC.
Position N 47°48' W 004°17'.
Warning: this ship's position is 24 days out of date.

Length 24 m; draft 4.1 m.

Type: Fishing. MMSI: 228174600.

Date/timePositionNaut miles runAvg speedWind from/ knotsBaromVisibWave heightAir tempDewpointWater temp
2017-Oct-28 13:03N 47°48' W 004°17'0 0.3
2017-Oct-28 12:52N 47°48' W 004°17'3 8.8
2017-Oct-28 12:29N 47°46' W 004°21'1511.1
2017-Oct-28 11:07N 47°47' W 004°44'311.1
2017-Oct-28 10:51N 47°47' W 004°48'611.1
2017-Oct-28 10:19N 47°48' W 004°57'1 2.4
2017-Oct-28 10:00N 47°47' W 004°57'2 3.5
2017-Oct-28 09:27N 47°47' W 005°00'6 9.8
2017-Oct-28 08:51N 47°47' W 005°09'611.0
2017-Oct-28 08:18N 47°47' W 005°18'411.1
2017-Oct-28 07:55N 47°47' W 005°24'611.2
2017-Oct-28 07:24N 47°47' W 005°33'511.1
2017-Oct-28 06:56N 47°47' W 005°41'610.9
2017-Oct-28 06:24N 47°47' W 005°50'510.9
2017-Oct-28 05:57N 47°47' W 005°57'511.0
2017-Oct-28 05:29N 47°47' W 006°04'  
2017-Oct-21 14:14N 43°53' W 008°01'7 8.1
2017-Oct-21 13:21N 43°53' W 007°51'3 7.9
2017-Oct-21 13:00N 43°52' W 007°47'4 8.2
2017-Oct-21 12:30N 43°52' W 007°41'4 8.4
2017-Oct-21 12:00N 43°52' W 007°36'4 8.1
2017-Oct-21 11:30N 43°51' W 007°30'4 8.5
2017-Oct-21 11:00N 43°51' W 007°24'4 8.5
2017-Oct-21 10:30N 43°50' W 007°18'4 8.3
2017-Oct-21 10:00N 43°49' W 007°13'263 6.6
2017-Oct-19 18:22N 47°50' W 004°42'3 9.3
2017-Oct-19 18:00N 47°54' W 004°44'510.6
2017-Oct-19 17:30N 47°59' W 004°46'611.3
2017-Oct-19 17:01N 48°04' W 004°44'5 9.8
2017-Oct-19 16:31N 48°06' W 004°37'5 9.2
2017-Oct-19 16:01N 48°06' W 004°30'5 9.4
2017-Oct-19 15:31N 48°07' W 004°23'3 5.1
2017-Oct-19 15:00N 48°06' W 004°20'0 0.1
2017-Oct-19 14:30N 48°06' W 004°20'0 0.0
2017-Oct-19 14:00N 48°06' W 004°20'0 0.0
2017-Oct-19 13:30N 48°06' W 004°20'0 0.1
2017-Oct-19 13:00N 48°06' W 004°20'0 0.0
2017-Oct-19 12:31N 48°06' W 004°20'0 0.0
2017-Oct-19 12:00N 48°06' W 004°20'0 0.0
2017-Oct-19 11:30N 48°06' W 004°20'0 0.3
2017-Oct-19 11:00N 48°06' W 004°19'0 0.0
2017-Oct-19 10:31N 48°06' W 004°19'0 0.0
2017-Oct-19 10:00N 48°06' W 004°19'0 0.0
2017-Oct-19 09:31N 48°06' W 004°19'0 0.0
2017-Oct-19 09:01N 48°06' W 004°19'  

Dump ship's entire track history